sensor_id;sensor_type;location;lat;lon;timestamp;P1;durP1;ratioP1;P2;durP2;ratioP2
11066;SDS011;29763;50.904;5.530;2022-12-20T00:01:07;2.40;;;2.03;;
11066;SDS011;29763;50.904;5.530;2022-12-20T00:03:36;3.85;;;2.00;;
11066;SDS011;29763;50.904;5.530;2022-12-20T00:06:04;3.35;;;2.60;;
11066;SDS011;29763;50.904;5.530;2022-12-20T00:08:30;5.63;;;2.63;;
11066;SDS011;29763;50.904;5.530;2022-12-20T00:10:58;3.60;;;2.10;;
11066;SDS011;29763;50.904;5.530;2022-12-20T00:13:25;2.35;;;2.15;;
11066;SDS011;29763;50.904;5.530;2022-12-20T00:16:05;5.53;;;2.20;;
11066;SDS011;29763;50.904;5.530;2022-12-20T00:18:38;2.35;;;2.10;;
11066;SDS011;29763;50.904;5.530;2022-12-20T00:21:06;3.60;;;2.30;;
11066;SDS011;29763;50.904;5.530;2022-12-20T00:23:33;2.47;;;2.28;;
11066;SDS011;29763;50.904;5.530;2022-12-20T00:26:03;2.30;;;2.10;;
11066;SDS011;29763;50.904;5.530;2022-12-20T00:28:31;3.55;;;2.15;;
11066;SDS011;29763;50.904;5.530;2022-12-20T00:30:58;2.47;;;2.25;;
11066;SDS011;29763;50.904;5.530;2022-12-20T00:33:24;3.40;;;2.10;;
11066;SDS011;29763;50.904;5.530;2022-12-20T00:35:50;4.40;;;2.20;;
11066;SDS011;29763;50.904;5.530;2022-12-20T00:38:16;3.22;;;2.10;;
11066;SDS011;29763;50.904;5.530;2022-12-20T00:40:42;2.47;;;2.10;;
11066;SDS011;29763;50.904;5.530;2022-12-20T00:43:07;2.20;;;2.00;;
11066;SDS011;29763;50.904;5.530;2022-12-20T00:45:33;2.63;;;2.20;;
11066;SDS011;29763;50.904;5.530;2022-12-20T00:48:00;3.35;;;2.00;;
11066;SDS011;29763;50.904;5.530;2022-12-20T00:50:26;2.72;;;2.17;;
11066;SDS011;29763;50.904;5.530;2022-12-20T00:52:51;2.40;;;2.20;;
11066;SDS011;29763;50.904;5.530;2022-12-20T00:55:17;2.50;;;2.30;;
11066;SDS011;29763;50.904;5.530;2022-12-20T00:57:44;2.38;;;2.15;;
11066;SDS011;29763;50.904;5.530;2022-12-20T01:00:10;4.20;;;2.25;;
11066;SDS011;29763;50.904;5.530;2022-12-20T01:02:36;3.33;;;2.22;;
11066;SDS011;29763;50.904;5.530;2022-12-20T01:05:02;2.45;;;2.00;;
11066;SDS011;29763;50.904;5.530;2022-12-20T01:07:28;2.20;;;2.00;;
11066;SDS011;29763;50.904;5.530;2022-12-20T01:09:53;2.80;;;2.47;;
11066;SDS011;29763;50.904;5.530;2022-12-20T01:12:19;3.17;;;2.38;;
11066;SDS011;29763;50.904;5.530;2022-12-20T01:14:45;3.47;;;2.28;;
11066;SDS011;29763;50.904;5.530;2022-12-20T01:17:11;2.20;;;2.00;;
11066;SDS011;29763;50.904;5.530;2022-12-20T01:19:36;3.35;;;2.10;;
11066;SDS011;29763;50.904;5.530;2022-12-20T01:22:02;4.35;;;2.55;;
11066;SDS011;29763;50.904;5.530;2022-12-20T01:24:28;2.55;;;2.22;;
11066;SDS011;29763;50.904;5.530;2022-12-20T01:26:53;5.45;;;2.30;;
11066;SDS011;29763;50.904;5.530;2022-12-20T01:29:20;3.22;;;2.15;;
11066;SDS011;29763;50.904;5.530;2022-12-20T01:31:46;2.72;;;1.90;;
11066;SDS011;29763;50.904;5.530;2022-12-20T01:34:12;3.97;;;2.10;;
11066;SDS011;29763;50.904;5.530;2022-12-20T01:36:39;2.15;;;1.90;;
11066;SDS011;29763;50.904;5.530;2022-12-20T01:39:06;2.88;;;2.15;;
11066;SDS011;29763;50.904;5.530;2022-12-20T01:41:35;3.42;;;2.20;;
11066;SDS011;29763;50.904;5.530;2022-12-20T01:46:32;2.92;;;1.95;;
11066;SDS011;29763;50.904;5.530;2022-12-20T01:49:04;3.20;;;2.25;;
11066;SDS011;29763;50.904;5.530;2022-12-20T01:52:01;2.50;;;2.13;;
11066;SDS011;29763;50.904;5.530;2022-12-20T01:57:12;2.80;;;2.00;;
11066;SDS011;29763;50.904;5.530;2022-12-20T01:59:43;1.98;;;1.88;;
11066;SDS011;29763;50.904;5.530;2022-12-20T02:02:12;2.13;;;2.00;;
11066;SDS011;29763;50.904;5.530;2022-12-20T02:04:39;4.40;;;2.20;;
11066;SDS011;29763;50.904;5.530;2022-12-20T02:07:06;2.42;;;2.20;;
11066;SDS011;29763;50.904;5.530;2022-12-20T02:09:42;3.42;;;2.05;;
11066;SDS011;29763;50.904;5.530;2022-12-20T02:12:15;2.88;;;2.08;;
11066;SDS011;29763;50.904;5.530;2022-12-20T02:21:37;2.22;;;2.03;;
11066;SDS011;29763;50.904;5.530;2022-12-20T02:24:12;3.70;;;2.25;;
11066;SDS011;29763;50.904;5.530;2022-12-20T02:26:55;4.32;;;2.17;;
11066;SDS011;29763;50.904;5.530;2022-12-20T02:30:00;2.58;;;2.25;;
11066;SDS011;29763;50.904;5.530;2022-12-20T02:35:17;2.80;;;2.53;;
11066;SDS011;29763;50.904;5.530;2022-12-20T02:37:52;2.47;;;1.90;;
11066;SDS011;29763;50.904;5.530;2022-12-20T02:44:07;2.42;;;2.20;;
11066;SDS011;29763;50.904;5.530;2022-12-20T02:46:54;3.35;;;2.40;;
11066;SDS011;29763;50.904;5.530;2022-12-20T02:49:24;3.30;;;2.40;;
11066;SDS011;29763;50.904;5.530;2022-12-20T02:52:02;5.18;;;2.40;;
11066;SDS011;29763;50.904;5.530;2022-12-20T02:54:30;2.33;;;2.08;;
11066;SDS011;29763;50.904;5.530;2022-12-20T03:00:14;3.03;;;2.40;;
11066;SDS011;29763;50.904;5.530;2022-12-20T03:02:43;2.60;;;2.25;;
11066;SDS011;29763;50.904;5.530;2022-12-20T03:05:28;2.65;;;2.45;;
11066;SDS011;29763;50.904;5.530;2022-12-20T03:07:54;4.15;;;2.47;;
11066;SDS011;29763;50.904;5.530;2022-12-20T03:10:20;3.88;;;2.20;;
11066;SDS011;29763;50.904;5.530;2022-12-20T03:12:46;4.57;;;2.63;;
11066;SDS011;29763;50.904;5.530;2022-12-20T03:15:13;4.28;;;2.58;;
11066;SDS011;29763;50.904;5.530;2022-12-20T03:17:39;2.88;;;2.28;;
11066;SDS011;29763;50.904;5.530;2022-12-20T03:20:06;3.97;;;2.53;;
11066;SDS011;29763;50.904;5.530;2022-12-20T03:22:35;4.60;;;2.30;;
11066;SDS011;29763;50.904;5.530;2022-12-20T03:25:01;4.22;;;2.35;;
11066;SDS011;29763;50.904;5.530;2022-12-20T03:27:27;3.63;;;2.78;;
11066;SDS011;29763;50.904;5.530;2022-12-20T03:29:53;3.45;;;2.20;;
11066;SDS011;29763;50.904;5.530;2022-12-20T03:32:25;2.72;;;2.40;;
11066;SDS011;29763;50.904;5.530;2022-12-20T03:34:50;3.90;;;2.30;;
11066;SDS011;29763;50.904;5.530;2022-12-20T03:37:16;5.05;;;2.60;;
11066;SDS011;29763;50.904;5.530;2022-12-20T03:39:42;4.13;;;2.35;;
11066;SDS011;29763;50.904;5.530;2022-12-20T03:42:09;3.92;;;2.28;;
11066;SDS011;29763;50.904;5.530;2022-12-20T03:44:34;2.30;;;2.10;;
11066;SDS011;29763;50.904;5.530;2022-12-20T03:47:02;2.78;;;2.30;;
11066;SDS011;29763;50.904;5.530;2022-12-20T03:49:28;4.43;;;2.38;;
11066;SDS011;29763;50.904;5.530;2022-12-20T03:51:53;4.05;;;2.45;;
11066;SDS011;29763;50.904;5.530;2022-12-20T03:54:19;3.22;;;2.50;;
11066;SDS011;29763;50.904;5.530;2022-12-20T03:56:44;3.03;;;2.65;;
11066;SDS011;29763;50.904;5.530;2022-12-20T03:59:10;3.55;;;2.22;;
11066;SDS011;29763;50.904;5.530;2022-12-20T04:01:38;3.20;;;2.38;;
11066;SDS011;29763;50.904;5.530;2022-12-20T04:04:03;3.38;;;2.20;;
11066;SDS011;29763;50.904;5.530;2022-12-20T04:06:29;5.28;;;2.47;;
11066;SDS011;29763;50.904;5.530;2022-12-20T04:08:58;3.70;;;2.20;;
11066;SDS011;29763;50.904;5.530;2022-12-20T04:11:25;3.40;;;2.30;;
11066;SDS011;29763;50.904;5.530;2022-12-20T04:13:51;2.85;;;2.28;;
11066;SDS011;29763;50.904;5.530;2022-12-20T04:16:19;3.17;;;2.22;;
11066;SDS011;29763;50.904;5.530;2022-12-20T04:18:52;4.22;;;3.05;;
11066;SDS011;29763;50.904;5.530;2022-12-20T04:21:27;3.65;;;2.38;;
11066;SDS011;29763;50.904;5.530;2022-12-20T04:23:57;3.90;;;2.20;;
11066;SDS011;29763;50.904;5.530;2022-12-20T04:26:24;3.58;;;2.38;;
11066;SDS011;29763;50.904;5.530;2022-12-20T04:28:50;4.47;;;2.40;;
11066;SDS011;29763;50.904;5.530;2022-12-20T04:31:16;2.60;;;2.13;;
11066;SDS011;29763;50.904;5.530;2022-12-20T04:33:41;2.25;;;2.00;;
11066;SDS011;29763;50.904;5.530;2022-12-20T04:36:07;3.72;;;2.10;;
11066;SDS011;29763;50.904;5.530;2022-12-20T04:38:33;2.80;;;1.92;;
11066;SDS011;29763;50.904;5.530;2022-12-20T04:40:59;4.18;;;2.20;;
11066;SDS011;29763;50.904;5.530;2022-12-20T04:43:25;5.45;;;2.03;;
11066;SDS011;29763;50.904;5.530;2022-12-20T04:45:51;3.97;;;2.20;;
11066;SDS011;29763;50.904;5.530;2022-12-20T04:48:20;2.60;;;2.05;;
11066;SDS011;29763;50.904;5.530;2022-12-20T04:50:49;2.88;;;2.08;;
11066;SDS011;29763;50.904;5.530;2022-12-20T04:53:15;5.10;;;2.00;;
11066;SDS011;29763;50.904;5.530;2022-12-20T04:56:00;2.10;;;1.90;;
11066;SDS011;29763;50.904;5.530;2022-12-20T04:58:26;2.35;;;2.15;;
11066;SDS011;29763;50.904;5.530;2022-12-20T05:00:54;5.25;;;1.95;;
11066;SDS011;29763;50.904;5.530;2022-12-20T05:03:20;3.13;;;1.88;;
11066;SDS011;29763;50.904;5.530;2022-12-20T05:05:47;3.22;;;2.10;;
11066;SDS011;29763;50.904;5.530;2022-12-20T05:08:14;3.05;;;1.90;;
11066;SDS011;29763;50.904;5.530;2022-12-20T05:10:42;2.28;;;1.90;;
11066;SDS011;29763;50.904;5.530;2022-12-20T05:13:10;3.33;;;2.03;;
11066;SDS011;29763;50.904;5.530;2022-12-20T05:15:37;3.22;;;1.90;;
11066;SDS011;29763;50.904;5.530;2022-12-20T05:18:03;3.45;;;1.90;;
11066;SDS011;29763;50.904;5.530;2022-12-20T05:20:30;2.92;;;2.10;;
11066;SDS011;29763;50.904;5.530;2022-12-20T05:22:56;1.92;;;1.77;;
11066;SDS011;29763;50.904;5.530;2022-12-20T05:25:47;3.38;;;1.90;;
11066;SDS011;29763;50.904;5.530;2022-12-20T05:28:33;3.25;;;2.08;;
11066;SDS011;29763;50.904;5.530;2022-12-20T05:30:59;2.60;;;1.77;;
11066;SDS011;29763;50.904;5.530;2022-12-20T05:33:26;2.75;;;1.73;;
11066;SDS011;29763;50.904;5.530;2022-12-20T05:35:52;2.65;;;1.83;;
11066;SDS011;29763;50.904;5.530;2022-12-20T05:38:18;2.60;;;1.90;;
11066;SDS011;29763;50.904;5.530;2022-12-20T05:40:46;2.45;;;2.00;;
11066;SDS011;29763;50.904;5.530;2022-12-20T05:43:12;2.15;;;1.63;;
11066;SDS011;29763;50.904;5.530;2022-12-20T05:45:39;4.07;;;1.77;;
11066;SDS011;29763;50.904;5.530;2022-12-20T05:48:05;4.60;;;2.00;;
11066;SDS011;29763;50.904;5.530;2022-12-20T05:50:31;2.03;;;1.70;;
11066;SDS011;29763;50.904;5.530;2022-12-20T05:52:56;2.38;;;1.88;;
11066;SDS011;29763;50.904;5.530;2022-12-20T05:55:22;3.72;;;1.85;;
11066;SDS011;29763;50.904;5.530;2022-12-20T05:57:48;4.63;;;1.70;;
11066;SDS011;29763;50.904;5.530;2022-12-20T06:00:14;3.80;;;2.00;;
11066;SDS011;29763;50.904;5.530;2022-12-20T06:02:40;2.33;;;1.85;;
11066;SDS011;29763;50.904;5.530;2022-12-20T06:05:06;2.17;;;1.83;;
11066;SDS011;29763;50.904;5.530;2022-12-20T06:07:32;2.58;;;1.80;;
11066;SDS011;29763;50.904;5.530;2022-12-20T06:09:58;2.83;;;1.90;;
11066;SDS011;29763;50.904;5.530;2022-12-20T06:12:24;3.45;;;1.95;;
11066;SDS011;29763;50.904;5.530;2022-12-20T06:14:49;3.47;;;2.15;;
11066;SDS011;29763;50.904;5.530;2022-12-20T06:17:15;2.10;;;1.85;;
11066;SDS011;29763;50.904;5.530;2022-12-20T06:19:41;2.47;;;1.65;;
11066;SDS011;29763;50.904;5.530;2022-12-20T06:22:07;3.72;;;1.80;;
11066;SDS011;29763;50.904;5.530;2022-12-20T06:24:34;3.50;;;1.77;;
11066;SDS011;29763;50.904;5.530;2022-12-20T06:27:06;2.00;;;1.67;;
11066;SDS011;29763;50.904;5.530;2022-12-20T06:29:32;2.03;;;1.83;;
11066;SDS011;29763;50.904;5.530;2022-12-20T06:31:58;1.95;;;1.77;;
11066;SDS011;29763;50.904;5.530;2022-12-20T06:34:24;2.67;;;1.77;;
11066;SDS011;29763;50.904;5.530;2022-12-20T06:36:49;2.97;;;1.88;;
11066;SDS011;29763;50.904;5.530;2022-12-20T06:39:15;1.75;;;1.65;;
11066;SDS011;29763;50.904;5.530;2022-12-20T06:41:42;2.70;;;1.70;;
11066;SDS011;29763;50.904;5.530;2022-12-20T06:44:08;3.17;;;1.70;;
11066;SDS011;29763;50.904;5.530;2022-12-20T06:46:34;2.80;;;1.83;;
11066;SDS011;29763;50.904;5.530;2022-12-20T06:48:59;3.47;;;2.00;;
11066;SDS011;29763;50.904;5.530;2022-12-20T06:51:25;3.92;;;2.25;;
11066;SDS011;29763;50.904;5.530;2022-12-20T06:53:51;2.55;;;1.80;;
11066;SDS011;29763;50.904;5.530;2022-12-20T06:56:16;3.85;;;2.10;;
11066;SDS011;29763;50.904;5.530;2022-12-20T06:58:44;2.88;;;2.00;;
11066;SDS011;29763;50.904;5.530;2022-12-20T07:01:11;2.55;;;1.85;;
11066;SDS011;29763;50.904;5.530;2022-12-20T07:03:37;3.58;;;1.98;;
11066;SDS011;29763;50.904;5.530;2022-12-20T07:06:02;4.00;;;2.08;;
11066;SDS011;29763;50.904;5.530;2022-12-20T07:08:34;4.95;;;2.67;;
11066;SDS011;29763;50.904;5.530;2022-12-20T07:11:05;3.03;;;2.10;;
11066;SDS011;29763;50.904;5.530;2022-12-20T07:13:33;7.63;;;2.60;;
11066;SDS011;29763;50.904;5.530;2022-12-20T07:16:00;2.72;;;2.20;;
11066;SDS011;29763;50.904;5.530;2022-12-20T07:18:28;2.67;;;2.08;;
11066;SDS011;29763;50.904;5.530;2022-12-20T07:20:58;3.55;;;1.88;;
11066;SDS011;29763;50.904;5.530;2022-12-20T07:23:28;3.65;;;2.17;;
11066;SDS011;29763;50.904;5.530;2022-12-20T07:25:56;3.35;;;2.10;;
11066;SDS011;29763;50.904;5.530;2022-12-20T07:28:23;2.13;;;1.90;;
11066;SDS011;29763;50.904;5.530;2022-12-20T07:30:50;4.65;;;2.30;;
11066;SDS011;29763;50.904;5.530;2022-12-20T07:33:16;3.05;;;2.10;;
11066;SDS011;29763;50.904;5.530;2022-12-20T07:35:43;3.67;;;2.40;;
11066;SDS011;29763;50.904;5.530;2022-12-20T07:38:12;5.03;;;2.40;;
11066;SDS011;29763;50.904;5.530;2022-12-20T07:40:39;6.60;;;2.67;;
11066;SDS011;29763;50.904;5.530;2022-12-20T07:43:12;4.40;;;2.20;;
11066;SDS011;29763;50.904;5.530;2022-12-20T07:45:41;2.17;;;1.83;;
11066;SDS011;29763;50.904;5.530;2022-12-20T07:48:18;5.88;;;2.17;;
11066;SDS011;29763;50.904;5.530;2022-12-20T07:50:44;5.18;;;2.38;;
11066;SDS011;29763;50.904;5.530;2022-12-20T07:53:10;3.15;;;2.28;;
11066;SDS011;29763;50.904;5.530;2022-12-20T07:55:36;3.35;;;2.20;;
11066;SDS011;29763;50.904;5.530;2022-12-20T07:58:04;8.48;;;2.63;;
11066;SDS011;29763;50.904;5.530;2022-12-20T08:00:32;4.22;;;2.30;;
11066;SDS011;29763;50.904;5.530;2022-12-20T08:03:06;5.45;;;2.63;;
11066;SDS011;29763;50.904;5.530;2022-12-20T08:05:36;2.78;;;1.90;;
11066;SDS011;29763;50.904;5.530;2022-12-20T08:08:10;6.47;;;2.42;;
11066;SDS011;29763;50.904;5.530;2022-12-20T08:10:37;4.50;;;2.70;;
11066;SDS011;29763;50.904;5.530;2022-12-20T08:13:04;3.70;;;2.20;;
11066;SDS011;29763;50.904;5.530;2022-12-20T08:15:31;3.55;;;2.20;;
11066;SDS011;29763;50.904;5.530;2022-12-20T08:17:58;3.63;;;2.10;;
11066;SDS011;29763;50.904;5.530;2022-12-20T08:20:24;5.72;;;2.47;;
11066;SDS011;29763;50.904;5.530;2022-12-20T08:22:50;6.07;;;2.80;;
11066;SDS011;29763;50.904;5.530;2022-12-20T08:25:17;4.10;;;1.98;;
11066;SDS011;29763;50.904;5.530;2022-12-20T08:27:42;4.53;;;1.88;;
11066;SDS011;29763;50.904;5.530;2022-12-20T08:30:09;4.03;;;2.13;;
11066;SDS011;29763;50.904;5.530;2022-12-20T08:32:35;3.95;;;2.40;;
11066;SDS011;29763;50.904;5.530;2022-12-20T08:35:02;8.05;;;2.47;;
11066;SDS011;29763;50.904;5.530;2022-12-20T08:37:28;2.22;;;1.88;;
11066;SDS011;29763;50.904;5.530;2022-12-20T08:39:54;4.70;;;2.58;;
11066;SDS011;29763;50.904;5.530;2022-12-20T08:42:21;5.22;;;2.10;;
11066;SDS011;29763;50.904;5.530;2022-12-20T08:44:49;4.57;;;2.17;;
11066;SDS011;29763;50.904;5.530;2022-12-20T08:47:16;3.75;;;1.98;;
11066;SDS011;29763;50.904;5.530;2022-12-20T08:49:48;4.82;;;2.85;;
11066;SDS011;29763;50.904;5.530;2022-12-20T08:52:14;4.82;;;2.78;;
11066;SDS011;29763;50.904;5.530;2022-12-20T08:54:39;5.38;;;2.60;;
11066;SDS011;29763;50.904;5.530;2022-12-20T08:57:05;4.80;;;2.13;;
11066;SDS011;29763;50.904;5.530;2022-12-20T08:59:32;4.90;;;2.40;;
11066;SDS011;29763;50.904;5.530;2022-12-20T09:01:58;5.25;;;2.35;;
11066;SDS011;29763;50.904;5.530;2022-12-20T09:04:23;4.72;;;2.30;;
11066;SDS011;29763;50.904;5.530;2022-12-20T09:06:49;3.38;;;2.10;;
11066;SDS011;29763;50.904;5.530;2022-12-20T09:09:15;3.05;;;2.15;;
11066;SDS011;29763;50.904;5.530;2022-12-20T09:11:42;4.22;;;2.25;;
11066;SDS011;29763;50.904;5.530;2022-12-20T09:14:08;5.55;;;2.38;;
11066;SDS011;29763;50.904;5.530;2022-12-20T09:16:34;5.45;;;2.15;;
11066;SDS011;29763;50.904;5.530;2022-12-20T09:19:02;6.38;;;2.33;;
11066;SDS011;29763;50.904;5.530;2022-12-20T09:21:29;4.47;;;2.40;;
11066;SDS011;29763;50.904;5.530;2022-12-20T09:23:55;3.95;;;2.05;;
11066;SDS011;29763;50.904;5.530;2022-12-20T09:26:22;4.57;;;2.13;;
11066;SDS011;29763;50.904;5.530;2022-12-20T09:28:50;4.05;;;2.40;;
11066;SDS011;29763;50.904;5.530;2022-12-20T09:31:18;4.75;;;2.00;;
11066;SDS011;29763;50.904;5.530;2022-12-20T09:33:45;4.70;;;2.55;;
11066;SDS011;29763;50.904;5.530;2022-12-20T09:36:13;2.15;;;1.95;;
11066;SDS011;29763;50.904;5.530;2022-12-20T09:39:00;6.32;;;2.60;;
11066;SDS011;29763;50.904;5.530;2022-12-20T09:41:33;5.28;;;2.60;;
11066;SDS011;29763;50.904;5.530;2022-12-20T09:44:06;3.47;;;2.20;;
11066;SDS011;29763;50.904;5.530;2022-12-20T09:47:00;5.07;;;1.80;;
11066;SDS011;29763;50.904;5.530;2022-12-20T09:49:30;4.95;;;2.40;;
11066;SDS011;29763;50.904;5.530;2022-12-20T09:52:04;3.13;;;2.13;;
11066;SDS011;29763;50.904;5.530;2022-12-20T10:00:34;3.67;;;2.75;;
11066;SDS011;29763;50.904;5.530;2022-12-20T10:03:04;3.70;;;2.50;;
11066;SDS011;29763;50.904;5.530;2022-12-20T10:05:52;4.65;;;2.85;;
11066;SDS011;29763;50.904;5.530;2022-12-20T10:11:10;3.40;;;2.47;;
11066;SDS011;29763;50.904;5.530;2022-12-20T10:13:52;3.33;;;2.53;;
11066;SDS011;29763;50.904;5.530;2022-12-20T10:16:48;4.47;;;2.40;;
11066;SDS011;29763;50.904;5.530;2022-12-20T10:24:50;4.80;;;2.28;;
11066;SDS011;29763;50.904;5.530;2022-12-20T10:27:24;4.63;;;2.63;;
11066;SDS011;29763;50.904;5.530;2022-12-20T10:29:50;4.70;;;2.30;;
11066;SDS011;29763;50.904;5.530;2022-12-20T10:32:19;3.80;;;2.22;;
11066;SDS011;29763;50.904;5.530;2022-12-20T10:35:11;3.70;;;2.13;;
11066;SDS011;29763;50.904;5.530;2022-12-20T10:38:06;3.10;;;2.13;;
11066;SDS011;29763;50.904;5.530;2022-12-20T10:40:37;4.40;;;2.25;;
11066;SDS011;29763;50.904;5.530;2022-12-20T10:43:04;3.42;;;2.25;;
11066;SDS011;29763;50.904;5.530;2022-12-20T10:45:38;4.22;;;2.63;;
11066;SDS011;29763;50.904;5.530;2022-12-20T10:48:24;4.57;;;2.40;;
11066;SDS011;29763;50.904;5.530;2022-12-20T10:51:00;4.57;;;2.35;;
11066;SDS011;29763;50.904;5.530;2022-12-20T10:53:59;4.05;;;2.70;;
11066;SDS011;29763;50.904;5.530;2022-12-20T10:56:42;6.82;;;2.45;;
11066;SDS011;29763;50.904;5.530;2022-12-20T10:59:35;4.22;;;2.70;;
11066;SDS011;29763;50.904;5.530;2022-12-20T11:10:23;4.55;;;2.50;;
11066;SDS011;29763;50.904;5.530;2022-12-20T11:12:54;3.75;;;2.25;;
11066;SDS011;29763;50.904;5.530;2022-12-20T11:15:24;4.07;;;2.42;;
11066;SDS011;29763;50.904;5.530;2022-12-20T11:17:53;3.72;;;2.30;;
11066;SDS011;29763;50.904;5.530;2022-12-20T11:20:32;4.05;;;2.15;;
11066;SDS011;29763;50.904;5.530;2022-12-20T11:39:50;4.63;;;2.45;;
11066;SDS011;29763;50.904;5.530;2022-12-20T11:50:58;2.45;;;2.13;;
11066;SDS011;29763;50.904;5.530;2022-12-20T11:53:34;5.47;;;2.50;;
11066;SDS011;29763;50.904;5.530;2022-12-20T11:56:35;4.22;;;2.80;;
11066;SDS011;29763;50.904;5.530;2022-12-20T12:01:46;5.55;;;2.85;;
11066;SDS011;29763;50.904;5.530;2022-12-20T12:07:30;3.50;;;2.58;;
11066;SDS011;29763;50.904;5.530;2022-12-20T12:12:39;4.85;;;2.40;;
11066;SDS011;29763;50.904;5.530;2022-12-20T12:18:02;5.97;;;3.03;;
11066;SDS011;29763;50.904;5.530;2022-12-20T12:26:38;5.47;;;2.40;;
11066;SDS011;29763;50.904;5.530;2022-12-20T12:45:55;7.28;;;2.92;;
11066;SDS011;29763;50.904;5.530;2022-12-20T12:51:31;4.80;;;2.97;;
11066;SDS011;29763;50.904;5.530;2022-12-20T12:54:02;5.70;;;2.88;;
11066;SDS011;29763;50.904;5.530;2022-12-20T13:15:49;7.43;;;3.50;;
11066;SDS011;29763;50.904;5.530;2022-12-20T13:18:20;4.93;;;3.03;;
11066;SDS011;29763;50.904;5.530;2022-12-20T13:26:58;5.00;;;3.30;;
11066;SDS011;29763;50.904;5.530;2022-12-20T13:29:26;10.10;;;3.08;;
11066;SDS011;29763;50.904;5.530;2022-12-20T13:32:01;6.38;;;3.38;;
11066;SDS011;29763;50.904;5.530;2022-12-20T13:37:50;4.85;;;2.78;;
11066;SDS011;29763;50.904;5.530;2022-12-20T13:40:35;7.18;;;3.10;;
11066;SDS011;29763;50.904;5.530;2022-12-20T13:49:07;5.85;;;3.15;;
11066;SDS011;29763;50.904;5.530;2022-12-20T13:51:36;5.35;;;3.40;;
11066;SDS011;29763;50.904;5.530;2022-12-20T13:54:05;8.07;;;3.67;;
11066;SDS011;29763;50.904;5.530;2022-12-20T13:56:48;6.20;;;3.78;;
11066;SDS011;29763;50.904;5.530;2022-12-20T13:59:21;8.25;;;3.90;;
11066;SDS011;29763;50.904;5.530;2022-12-20T14:01:52;5.75;;;3.83;;
11066;SDS011;29763;50.904;5.530;2022-12-20T14:04:23;6.32;;;3.53;;
11066;SDS011;29763;50.904;5.530;2022-12-20T14:06:51;6.88;;;3.50;;
11066;SDS011;29763;50.904;5.530;2022-12-20T14:09:34;5.05;;;3.20;;
11066;SDS011;29763;50.904;5.530;2022-12-20T14:12:16;6.20;;;3.45;;
11066;SDS011;29763;50.904;5.530;2022-12-20T14:14:46;7.10;;;3.85;;
11066;SDS011;29763;50.904;5.530;2022-12-20T14:20:12;4.47;;;2.97;;
11066;SDS011;29763;50.904;5.530;2022-12-20T14:22:48;6.10;;;3.50;;
11066;SDS011;29763;50.904;5.530;2022-12-20T14:28:28;5.80;;;3.33;;
11066;SDS011;29763;50.904;5.530;2022-12-20T14:31:06;13.07;;;4.50;;
11066;SDS011;29763;50.904;5.530;2022-12-20T14:33:46;10.68;;;4.43;;
11066;SDS011;29763;50.904;5.530;2022-12-20T14:38:41;8.20;;;3.58;;
11066;SDS011;29763;50.904;5.530;2022-12-20T14:46:32;6.95;;;3.42;;
11066;SDS011;29763;50.904;5.530;2022-12-20T14:49:15;7.28;;;3.55;;
11066;SDS011;29763;50.904;5.530;2022-12-20T14:51:47;6.18;;;3.75;;
11066;SDS011;29763;50.904;5.530;2022-12-20T14:54:16;5.47;;;3.25;;
11066;SDS011;29763;50.904;5.530;2022-12-20T14:56:49;4.20;;;3.10;;
11066;SDS011;29763;50.904;5.530;2022-12-20T14:59:20;4.82;;;2.90;;
11066;SDS011;29763;50.904;5.530;2022-12-20T15:01:50;4.70;;;2.75;;
11066;SDS011;29763;50.904;5.530;2022-12-20T15:04:19;5.40;;;3.30;;
11066;SDS011;29763;50.904;5.530;2022-12-20T15:06:45;6.47;;;3.40;;
11066;SDS011;29763;50.904;5.530;2022-12-20T15:09:16;5.18;;;2.95;;
11066;SDS011;29763;50.904;5.530;2022-12-20T15:11:42;5.18;;;3.33;;
11066;SDS011;29763;50.904;5.530;2022-12-20T15:16:58;5.95;;;3.22;;
11066;SDS011;29763;50.904;5.530;2022-12-20T15:19:23;3.58;;;3.28;;
11066;SDS011;29763;50.904;5.530;2022-12-20T15:21:49;5.10;;;3.53;;
11066;SDS011;29763;50.904;5.530;2022-12-20T15:24:16;3.97;;;3.47;;
11066;SDS011;29763;50.904;5.530;2022-12-20T15:26:45;5.82;;;3.50;;
11066;SDS011;29763;50.904;5.530;2022-12-20T15:29:15;4.47;;;3.15;;
11066;SDS011;29763;50.904;5.530;2022-12-20T15:31:44;3.72;;;2.83;;
11066;SDS011;29763;50.904;5.530;2022-12-20T15:34:17;5.88;;;3.17;;
11066;SDS011;29763;50.904;5.530;2022-12-20T15:37:02;4.55;;;3.08;;
11066;SDS011;29763;50.904;5.530;2022-12-20T15:39:30;4.53;;;3.40;;
11066;SDS011;29763;50.904;5.530;2022-12-20T15:42:02;5.60;;;3.25;;
11066;SDS011;29763;50.904;5.530;2022-12-20T15:44:29;7.97;;;3.30;;
11066;SDS011;29763;50.904;5.530;2022-12-20T15:46:56;5.10;;;3.60;;
11066;SDS011;29763;50.904;5.530;2022-12-20T15:49:23;4.13;;;3.20;;
11066;SDS011;29763;50.904;5.530;2022-12-20T15:51:52;6.15;;;4.13;;
11066;SDS011;29763;50.904;5.530;2022-12-20T15:54:22;7.28;;;4.72;;
11066;SDS011;29763;50.904;5.530;2022-12-20T15:56:51;8.07;;;5.43;;
11066;SDS011;29763;50.904;5.530;2022-12-20T15:59:22;8.95;;;4.82;;
11066;SDS011;29763;50.904;5.530;2022-12-20T16:01:48;6.70;;;3.70;;
11066;SDS011;29763;50.904;5.530;2022-12-20T16:04:17;4.90;;;3.38;;
11066;SDS011;29763;50.904;5.530;2022-12-20T16:06:44;5.70;;;3.50;;
11066;SDS011;29763;50.904;5.530;2022-12-20T16:09:11;4.53;;;3.63;;
11066;SDS011;29763;50.904;5.530;2022-12-20T16:11:40;6.72;;;3.97;;
11066;SDS011;29763;50.904;5.530;2022-12-20T16:14:14;6.22;;;4.80;;
11066;SDS011;29763;50.904;5.530;2022-12-20T16:16:42;5.65;;;4.45;;
11066;SDS011;29763;50.904;5.530;2022-12-20T16:19:09;6.65;;;4.18;;
11066;SDS011;29763;50.904;5.530;2022-12-20T16:24:11;4.40;;;3.00;;
11066;SDS011;29763;50.904;5.530;2022-12-20T16:26:38;4.28;;;3.50;;
11066;SDS011;29763;50.904;5.530;2022-12-20T16:29:04;8.18;;;4.50;;
11066;SDS011;29763;50.904;5.530;2022-12-20T16:31:34;6.50;;;4.95;;
11066;SDS011;29763;50.904;5.530;2022-12-20T16:34:03;6.53;;;4.20;;
11066;SDS011;29763;50.904;5.530;2022-12-20T16:36:30;7.72;;;4.30;;
11066;SDS011;29763;50.904;5.530;2022-12-20T16:38:57;5.28;;;4.20;;
11066;SDS011;29763;50.904;5.530;2022-12-20T16:41:24;4.47;;;3.33;;
11066;SDS011;29763;50.904;5.530;2022-12-20T16:43:55;5.13;;;3.38;;
11066;SDS011;29763;50.904;5.530;2022-12-20T16:46:23;6.18;;;3.67;;
11066;SDS011;29763;50.904;5.530;2022-12-20T16:48:51;6.70;;;3.92;;
11066;SDS011;29763;50.904;5.530;2022-12-20T16:54:04;6.38;;;4.45;;
11066;SDS011;29763;50.904;5.530;2022-12-20T16:56:32;4.43;;;3.65;;
11066;SDS011;29763;50.904;5.530;2022-12-20T16:58:59;5.25;;;3.72;;
11066;SDS011;29763;50.904;5.530;2022-12-20T17:01:33;4.88;;;3.67;;
11066;SDS011;29763;50.904;5.530;2022-12-20T17:03:59;5.97;;;3.70;;
11066;SDS011;29763;50.904;5.530;2022-12-20T17:06:27;4.20;;;3.80;;
11066;SDS011;29763;50.904;5.530;2022-12-20T17:08:54;4.53;;;3.50;;
11066;SDS011;29763;50.904;5.530;2022-12-20T17:13:50;6.68;;;3.53;;
11066;SDS011;29763;50.904;5.530;2022-12-20T17:19:03;4.20;;;3.80;;
11066;SDS011;29763;50.904;5.530;2022-12-20T17:24:01;5.43;;;4.45;;
11066;SDS011;29763;50.904;5.530;2022-12-20T17:26:32;5.45;;;3.72;;
11066;SDS011;29763;50.904;5.530;2022-12-20T17:28:58;7.65;;;6.18;;
11066;SDS011;29763;50.904;5.530;2022-12-20T17:31:30;8.02;;;7.20;;
11066;SDS011;29763;50.904;5.530;2022-12-20T17:34:05;6.43;;;5.47;;
11066;SDS011;29763;50.904;5.530;2022-12-20T17:37:01;8.73;;;6.47;;
11066;SDS011;29763;50.904;5.530;2022-12-20T17:39:27;7.53;;;5.88;;
11066;SDS011;29763;50.904;5.530;2022-12-20T17:41:53;9.07;;;5.35;;
11066;SDS011;29763;50.904;5.530;2022-12-20T17:44:21;9.88;;;6.15;;
11066;SDS011;29763;50.904;5.530;2022-12-20T17:46:47;6.57;;;5.10;;
11066;SDS011;29763;50.904;5.530;2022-12-20T17:49:14;4.97;;;4.30;;
11066;SDS011;29763;50.904;5.530;2022-12-20T17:51:40;7.88;;;4.50;;
11066;SDS011;29763;50.904;5.530;2022-12-20T17:54:08;7.38;;;4.40;;